Time;durP1;ratioP1;P1;durP2;ratioP2;P2;SDS_P1;SDS_P2;PMS_P1;PMS_P2;Temp;Humidity;BMP_temperature;BMP_pressure;BME280_temperature;BME280_humidity;BME280_pressure;Samples;Min_cycle;Max_cycle;Signal;HPM_P1;HPM_P2
2022/06/28 10:00:35;;;;;;;1.98;1.10;;;;;;;25.79;35.44;99922.97;5153409;27;20224;-67
2022/06/28 10:03:01;;;;;;;6.60;1.40;;;;;;;25.80;35.25;99921.91;5136269;27;20031;-67
2022/06/28 10:05:28;;;;;;;4.07;2.17;;;;;;;25.86;34.87;99915.63;5131682;27;20031;-67
2022/06/28 10:07:54;;;;;;;2.33;1.17;;;;;;;25.81;34.03;99922.75;5132610;27;20034;-67
2022/06/28 10:10:24;;;;;;;4.85;1.23;;;;;;;25.78;33.71;99918.59;5149108;27;20035;-66
2022/06/28 10:15:37;;;;;;;5.80;1.48;;;;;;;25.89;33.20;99915.22;5138222;27;20033;-67
2022/06/28 10:18:11;;;;;;;6.22;1.75;;;;;;;25.93;32.99;99921.03;5134614;27;20109;-68
2022/06/28 10:20:39;;;;;;;5.18;1.50;;;;;;;25.95;33.02;99908.09;5142877;27;20413;-67
2022/06/28 10:23:33;;;;;;;3.75;1.52;;;;;;;26.05;32.54;99918.50;5138821;27;20121;-67
2022/06/28 10:26:08;;;;;;;3.25;1.58;;;;;;;26.12;32.07;99908.50;5138757;27;20061;-67
2022/06/28 10:28:45;;;;;;;4.30;1.30;;;;;;;26.20;31.55;99912.84;5148661;27;20046;-66
2022/06/28 10:31:23;;;;;;;3.13;1.17;;;;;;;26.17;29.60;99910.56;5149960;27;20097;-67
2022/06/28 10:33:54;;;;;;;5.93;1.85;;;;;;;26.10;29.64;99907.00;5148881;27;20541;-66
2022/06/28 10:36:21;;;;;;;;;;;;;;;26.02;29.57;99916.22;5149606;27;20038;-68
2022/06/28 10:39:06;;;;;;;5.07;1.33;;;;;;;26.08;29.19;99904.53;5148040;27;19964;-66
2022/06/28 10:41:51;;;;;;;4.13;1.23;;;;;;;26.09;29.23;99905.34;5148236;27;20031;-68
2022/06/28 10:44:18;;;;;;;11.27;1.33;;;;;;;26.13;29.25;99902.00;5148090;27;20439;-68
2022/06/28 10:47:09;;;;;;;8.13;1.52;;;;;;;26.17;29.01;99908.69;5148876;27;20100;-67
2022/06/28 10:49:48;;;;;;;5.18;1.20;;;;;;;25.95;28.07;99901.88;5150281;27;20055;-67
2022/06/28 10:52:29;;;;;;;4.00;1.17;;;;;;;25.80;27.69;99904.81;5149488;27;20039;-67
2022/06/28 10:54:54;;;;;;;3.22;0.90;;;;;;;25.76;28.02;99907.13;5150384;27;20039;-67
2022/06/28 10:57:27;;;;;;;4.00;1.58;;;;;;;25.70;28.54;99903.38;5150093;27;20037;-66
2022/06/28 10:59:56;;;;;;;5.90;1.35;;;;;;;25.57;29.03;99906.94;5149689;27;20051;-67
2022/06/28 11:02:23;;;;;;;8.05;1.48;;;;;;;25.60;29.17;99900.25;5148894;27;20423;-66
2022/06/28 11:05:09;;;;;;;4.13;1.25;;;;;;;25.52;29.11;99900.50;5150286;27;20487;-66
2022/06/28 11:07:35;;;;;;;4.35;1.70;;;;;;;25.55;29.21;99903.59;5150314;27;20026;-66
2022/06/28 11:10:00;;;;;;;2.15;1.38;;;;;;;25.61;29.62;99898.41;5146530;27;20458;-66
2022/06/28 11:12:31;;;;;;;3.75;1.38;;;;;;;25.72;29.47;99906.72;5135975;27;20115;-66
2022/06/28 11:14:58;;;;;;;4.35;1.73;;;;;;;25.72;29.78;99906.72;5136553;27;20088;-66
2022/06/28 11:17:28;;;;;;;5.55;1.13;;;;;;;25.74;30.21;99901.88;5135170;27;20037;-66
2022/06/28 11:20:02;;;;;;;9.07;1.30;;;;;;;25.75;30.21;99910.88;5136094;27;20043;-66
2022/06/28 11:22:30;;;;;;;6.18;1.38;;;;;;;25.73;30.42;99902.94;5136053;27;20061;-66
2022/06/28 11:25:02;;;;;;;9.57;1.65;;;;;;;25.80;30.43;99902.94;5136171;27;20100;-66
2022/06/28 11:27:28;;;;;;;1.50;0.98;;;;;;;25.68;30.48;99910.03;5134756;27;20034;-66
2022/06/28 11:29:59;;;;;;;3.95;1.20;;;;;;;25.70;30.52;99903.38;5135691;27;20379;-66
2022/06/28 11:32:27;;;;;;;3.90;1.23;;;;;;;25.69;30.42;99901.72;5134628;27;20122;-67
2022/06/28 11:34:58;;;;;;;7.53;1.17;;;;;;;25.74;29.97;99904.59;5136259;27;20035;-67
2022/06/28 11:37:24;;;;;;;10.85;1.23;;;;;;;25.78;30.03;99905.03;5133817;27;20039;-67
2022/06/28 11:39:52;;;;;;;3.97;1.20;;;;;;;25.82;29.84;99908.97;5135904;27;20039;-67
2022/06/28 11:42:17;;;;;;;4.25;1.40;;;;;;;25.89;29.91;99907.09;5136015;27;20038;-67
2022/06/28 11:44:45;;;;;;;4.43;1.38;;;;;;;25.90;29.67;99897.06;5115698;28;20027;-67
2022/06/28 11:47:10;;;;;;;6.28;1.42;;;;;;;25.94;29.46;99892.88;5119293;27;20423;-67
2022/06/28 11:49:36;;;;;;;8.32;2.25;;;;;;;25.93;29.25;99910.19;5135429;27;20035;-67
2022/06/28 11:52:02;;;;;;;9.75;1.10;;;;;;;25.85;29.36;99897.69;5135814;27;20067;-67
2022/06/28 11:54:28;;;;;;;2.53;1.02;;;;;;;25.89;29.47;99904.38;5135618;27;20105;-67
2022/06/28 11:56:54;;;;;;;5.25;1.30;;;;;;;25.94;29.60;99892.06;5135466;27;20047;-67
2022/06/28 11:59:20;;;;;;;3.85;1.20;;;;;;;26.01;29.53;99906.41;5135166;27;20051;-67
2022/06/28 12:01:46;;;;;;;2.97;0.90;;;;;;;25.98;29.11;99896.84;5134705;27;20035;-67
2022/06/28 12:04:21;;;;;;;3.50;1.00;;;;;;;25.98;29.02;99896.00;5135383;27;20043;-66
2022/06/28 12:06:47;;;;;;;1.95;0.93;;;;;;;25.98;28.83;99898.69;5135256;27;20038;-67
2022/06/28 12:09:14;;;;;;;4.63;1.20;;;;;;;25.95;28.97;99899.97;5114544;28;20482;-66
2022/06/28 12:11:52;;;;;;;2.15;0.90;;;;;;;25.95;28.51;99896.44;5114977;28;20401;-67
2022/06/28 12:14:22;;;;;;;2.40;1.08;;;;;;;25.94;28.73;99901.00;5114682;28;20405;-66
2022/06/28 12:16:58;;;;;;;3.97;0.80;;;;;;;25.90;28.72;99892.47;5120181;27;20035;-66
2022/06/28 12:19:30;;;;;;;5.05;1.10;;;;;;;25.88;28.92;99894.56;5135112;27;20031;-66
2022/06/28 12:22:13;;;;;;;4.88;1.05;;;;;;;25.90;29.02;99897.06;5124283;27;20035;-66
2022/06/28 12:24:43;;;;;;;1.80;0.85;;;;;;;25.83;29.31;99888.94;5117926;27;20122;-66
2022/06/28 12:27:18;;;;;;;3.75;1.13;;;;;;;25.81;29.34;99890.22;5133474;27;20119;-66
2022/06/28 12:29:44;;;;;;;2.65;0.93;;;;;;;25.77;29.53;99897.09;5134054;27;20042;-67
2022/06/28 12:32:10;;;;;;;7.40;1.40;;;;;;;25.71;29.50;99877.94;5135031;27;20027;-66
2022/06/28 12:34:37;;;;;;;7.65;1.38;;;;;;;25.75;29.84;99879.16;5116895;27;20035;-66
2022/06/28 12:37:03;;;;;;;5.60;1.02;;;;;;;25.73;30.02;99873.13;5134678;27;20631;-67
2022/06/28 12:39:29;;;;;;;3.45;1.13;;;;;;;25.54;29.99;99876.72;5132816;27;20482;-66
2022/06/28 12:41:54;;;;;;;6.68;1.08;;;;;;;25.49;30.19;99880.09;5134533;27;20034;-66
2022/06/28 12:44:19;;;;;;;5.88;1.33;;;;;;;25.48;30.13;99875.69;5134766;27;20033;-67
2022/06/28 12:46:45;;;;;;;4.97;1.30;;;;;;;25.38;29.74;99877.97;5134479;27;20489;-66
2022/06/28 12:49:11;;;;;;;5.15;1.27;;;;;;;25.25;30.03;99879.63;5134630;27;20034;-67
2022/06/28 12:51:37;;;;;;;5.18;1.10;;;;;;;25.23;29.98;99873.59;5134302;27;20023;-67
2022/06/28 12:54:03;;;;;;;1.30;1.17;;;;;;;25.28;29.90;99873.81;5134299;27;20066;-66
2022/06/28 12:56:29;;;;;;;5.20;0.95;;;;;;;25.29;29.47;99875.47;5134281;27;20123;-66
2022/06/28 12:58:58;;;;;;;3.47;0.85;;;;;;;25.30;28.09;99876.28;5132889;27;20051;-67
2022/06/28 13:01:24;;;;;;;3.92;1.10;;;;;;;25.41;27.99;99872.13;5134055;27;20512;-67
2022/06/28 13:03:49;;;;;;;1.75;1.15;;;;;;;25.44;27.64;99875.28;5134186;27;20138;-67
2022/06/28 13:06:15;;;;;;;5.65;1.30;;;;;;;25.44;27.62;99869.84;5134306;27;20387;-68
2022/06/28 13:08:41;;;;;;;3.55;1.00;;;;;;;25.44;27.55;99872.56;5133460;27;20052;-67
2022/06/28 13:11:06;;;;;;;1.70;0.85;;;;;;;25.42;27.69;99871.13;5123742;27;20126;-67
2022/06/28 13:13:32;;;;;;;4.18;1.15;;;;;;;25.40;28.00;99870.47;5113630;28;20440;-67
2022/06/28 13:15:58;;;;;;;5.45;1.05;;;;;;;25.48;27.91;99873.00;5113755;28;20375;-67
2022/06/28 13:18:24;;;;;;;2.75;0.93;;;;;;;25.49;28.04;99874.66;5130665;27;20027;-67
2022/06/28 13:20:51;;;;;;;3.17;1.10;;;;;;;25.51;28.63;99869.88;5134397;27;20034;-66
2022/06/28 13:23:17;;;;;;;3.72;1.38;;;;;;;25.44;26.65;99866.31;5133977;27;20389;-66
2022/06/28 13:25:42;;;;;;;7.72;0.95;;;;;;;25.45;26.63;99878.81;5133906;27;20027;-67
2022/06/28 13:28:08;;;;;;;5.40;0.88;;;;;;;25.54;26.70;99874.03;5132522;27;20027;-66
2022/06/28 13:30:36;;;;;;;8.43;0.98;;;;;;;25.58;26.50;99867.97;5134078;27;20031;-66
2022/06/28 13:33:03;;;;;;;1.05;0.60;;;;;;;25.57;26.60;99866.28;5132572;27;20035;-66
2022/06/28 13:35:28;;;;;;;2.35;0.90;;;;;;;25.54;26.80;99871.31;5133365;27;20026;-67
2022/06/28 13:37:54;;;;;;;2.13;0.82;;;;;;;25.47;27.23;99868.63;5132713;27;20043;-67
2022/06/28 13:40:19;;;;;;;1.40;0.90;;;;;;;25.47;27.69;99868.63;5133879;27;20031;-67
2022/06/28 13:42:45;;;;;;;2.15;1.05;;;;;;;25.49;27.26;99874.66;5132888;27;20042;-67
2022/06/28 13:45:12;;;;;;;4.15;0.80;;;;;;;25.53;27.65;99873.19;5133693;27;20114;-67
2022/06/28 13:47:38;;;;;;;3.47;1.20;;;;;;;25.53;27.25;99877.78;5132853;27;20401;-67
2022/06/28 13:50:04;;;;;;;4.55;0.77;;;;;;;25.47;27.44;99871.31;5133093;27;20027;-66
2022/06/28 13:52:29;;;;;;;3.22;1.30;;;;;;;25.48;27.50;99881.13;5132256;27;20513;-68
2022/06/28 13:54:55;;;;;;;5.63;0.98;;;;;;;25.37;27.76;99874.44;5133411;27;20031;-68
2022/06/28 13:57:20;;;;;;;3.60;0.80;;;;;;;25.38;28.06;99876.09;5132919;28;20026;-67
2022/06/28 13:59:51;;;;;;;3.63;0.60;;;;;;;25.32;28.04;99874.22;5132057;28;20096;-68
2022/06/28 14:02:17;;;;;;;6.68;1.13;;;;;;;25.22;27.98;99873.81;5133546;28;20401;-67
2022/06/28 14:04:42;;;;;;;3.65;1.38;;;;;;;25.27;28.07;99876.75;5133605;28;20060;-68
2022/06/28 14:07:08;;;;;;;5.22;0.73;;;;;;;25.32;28.42;99876.09;5133137;28;20035;-68
2022/06/28 14:09:33;;;;;;;2.75;1.40;;;;;;;25.43;28.34;99876.34;5133080;28;20031;-68
2022/06/28 14:11:59;;;;;;;1.88;1.10;;;;;;;25.49;27.67;99880.09;5132897;28;20061;-68
2022/06/28 14:14:25;;;;;;;2.03;0.80;;;;;;;25.49;27.56;99871.94;5132342;28;20406;-68
2022/06/28 14:16:50;;;;;;;4.20;1.00;;;;;;;25.53;28.01;99873.19;5132381;28;20039;-68
2022/06/28 14:19:16;;;;;;;2.20;0.90;;;;;;;25.61;27.99;99876.72;5133023;28;20037;-67
2022/06/28 14:21:41;;;;;;;5.18;0.85;;;;;;;25.55;28.15;99884.63;5133408;28;20027;-68
2022/06/28 14:24:07;;;;;;;9.15;0.98;;;;;;;25.50;27.90;99878.19;5133719;28;20386;-68
2022/06/28 14:26:33;;;;;;;7.05;2.10;;;;;;;25.40;28.11;99871.31;5133072;28;20031;-68
2022/06/28 14:28:59;;;;;;;4.50;1.20;;;;;;;25.44;28.01;99874.44;5132371;28;20034;-68
2022/06/28 14:31:26;;;;;;;2.20;0.77;;;;;;;25.37;28.10;99881.72;5132927;28;20035;-67
2022/06/28 14:33:51;;;;;;;2.40;0.88;;;;;;;25.38;28.27;99867.97;5132218;28;20058;-67
2022/06/28 14:36:17;;;;;;;7.88;0.95;;;;;;;25.32;28.68;99863.38;5132036;28;20486;-67
2022/06/28 14:38:43;;;;;;;3.25;0.80;;;;;;;25.16;29.17;99880.06;5133057;28;20042;-67
2022/06/28 14:41:09;;;;;;;1.85;0.85;;;;;;;24.99;29.31;99881.31;5132933;28;20424;-67
2022/06/28 14:43:34;;;;;;;2.80;0.80;;;;;;;24.91;29.23;99870.69;5132774;28;20039;-67
2022/06/28 14:46:00;;;;;;;3.05;1.10;;;;;;;24.94;29.65;99866.75;5134820;27;20080;-67
2022/06/28 14:48:25;;;;;;;1.90;0.80;;;;;;;24.88;29.48;99868.41;5135796;27;20035;-67
2022/06/28 14:50:52;;;;;;;2.78;0.90;;;;;;;24.93;29.74;99868.59;5137089;27;20027;-67
2022/06/28 14:53:18;;;;;;;3.17;1.33;;;;;;;24.93;29.81;99879.41;5135599;27;20043;-68
2022/06/28 14:55:44;;;;;;;2.90;0.88;;;;;;;24.90;29.46;99882.56;5136814;27;20035;-67
2022/06/28 14:58:10;;;;;;;5.97;1.05;;;;;;;24.75;29.88;99876.50;5136609;27;20037;-66
2022/06/28 15:00:37;;;;;;;10.57;0.90;;;;;;;24.67;30.27;99883.75;5136796;27;20046;-67
2022/06/28 15:03:03;;;;;;;6.13;0.85;;;;;;;24.72;29.79;99882.31;5136282;27;20080;-67
2022/06/28 15:05:29;;;;;;;3.95;0.80;;;;;;;24.80;29.94;99887.53;5135906;27;20482;-68
2022/06/28 15:07:55;;;;;;;3.80;1.08;;;;;;;24.91;29.75;99886.09;5135310;27;20096;-68
2022/06/28 15:10:21;;;;;;;3.50;1.35;;;;;;;25.04;29.59;99890.69;5135410;27;20417;-67
2022/06/28 15:12:46;;;;;;;4.43;1.00;;;;;;;25.12;29.65;99885.91;5136179;27;20498;-67
2022/06/28 15:15:12;;;;;;;5.13;1.30;;;;;;;25.22;29.83;99887.34;5135964;27;20482;-67
2022/06/28 15:17:37;;;;;;;1.90;0.85;;;;;;;25.23;29.85;99887.13;5136046;27;20023;-67
2022/06/28 15:20:03;;;;;;;4.68;1.27;;;;;;;25.20;29.61;99879.44;5135363;27;20393;-67
2022/06/28 15:31:01;;;;;;;3.90;0.98;;;;;;;24.99;29.84;99875.91;5013174;28;20034;-68
2022/06/28 15:33:28;;;;;;;5.40;1.08;;;;;;;25.06;29.96;99883.22;5012735;28;20026;-67
2022/06/28 15:36:01;;;;;;;2.00;0.77;;;;;;;25.05;29.87;99887.78;5060571;28;20042;-68
2022/06/28 15:38:27;;;;;;;6.60;1.10;;;;;;;25.05;29.95;99892.38;5113598;27;20063;-68
2022/06/28 15:40:53;;;;;;;2.63;1.10;;;;;;;25.06;30.24;99891.31;5135765;27;20054;-68
2022/06/28 15:43:19;;;;;;;8.68;1.02;;;;;;;25.13;30.36;99884.03;5135413;27;20070;-67
2022/06/28 15:45:46;;;;;;;3.15;0.63;;;;;;;25.07;30.06;99890.28;5135721;27;20031;-67
2022/06/28 15:48:12;;;;;;;1.95;0.80;;;;;;;25.01;30.21;99900.03;5123762;27;20035;-67
2022/06/28 15:50:39;;;;;;;6.53;1.00;;;;;;;24.98;29.86;99898.59;5129299;27;20083;-67
2022/06/28 15:53:05;;;;;;;3.10;1.17;;;;;;;25.01;29.95;99888.41;5134848;27;20038;-68
2022/06/28 15:55:30;;;;;;;3.30;0.60;;;;;;;25.08;30.33;99887.34;5135809;27;20427;-68
2022/06/28 15:57:56;;;;;;;3.67;0.80;;;;;;;25.23;30.47;99897.97;5134407;27;20561;-68
2022/06/28 16:00:22;;;;;;;4.53;0.80;;;;;;;25.32;30.33;99893.19;5135848;27;20027;-67
2022/06/28 16:02:48;;;;;;;4.93;1.30;;;;;;;25.35;30.25;99910.91;5135161;27;20031;-67
2022/06/28 16:05:14;;;;;;;2.13;1.05;;;;;;;25.23;30.03;99900.69;5135347;27;20454;-67
2022/06/28 16:07:41;;;;;;;4.43;0.95;;;;;;;25.19;30.15;99896.75;5134572;27;20038;-67
2022/06/28 16:10:07;;;;;;;4.70;0.80;;;;;;;25.14;29.73;99902.78;5135216;27;20080;-67
2022/06/28 16:15:18;;;;;;;2.22;0.80;;;;;;;25.03;29.91;99903.38;5115210;28;20038;-66
2022/06/28 16:17:44;;;;;;;2.92;0.80;;;;;;;24.99;30.11;99904.84;5123609;27;20042;-66
2022/06/28 16:20:11;;;;;;;6.60;1.00;;;;;;;24.99;29.93;99912.97;5134512;27;20035;-66
2022/06/28 16:22:39;;;;;;;4.18;1.05;;;;;;;24.91;29.74;99905.88;5134769;27;20031;-66
2022/06/28 16:25:09;;;;;;;6.68;0.73;;;;;;;24.77;29.95;99910.44;5116317;27;20134;-66
2022/06/28 16:27:35;;;;;;;2.05;0.65;;;;;;;24.66;29.90;99897.47;5134230;27;20062;-66
2022/06/28 16:30:01;;;;;;;1.35;0.90;;;;;;;24.62;30.18;99907.88;5135028;27;20092;-66
2022/06/28 16:32:26;;;;;;;3.22;0.77;;;;;;;24.55;30.20;99896.19;5134558;27;20110;-66
2022/06/28 16:34:52;;;;;;;4.68;0.93;;;;;;;24.51;30.01;99894.94;5135117;27;20033;-66
2022/06/28 16:37:17;;;;;;;4.28;0.88;;;;;;;24.49;30.29;99891.59;5133676;27;20023;-67
2022/06/28 16:39:43;;;;;;;5.85;0.80;;;;;;;24.56;30.54;99895.16;5133795;27;20027;-67
2022/06/28 16:42:09;;;;;;;2.40;0.60;;;;;;;24.67;30.66;99899.16;5134904;27;20449;-67
2022/06/28 16:44:35;;;;;;;12.57;1.05;;;;;;;24.67;30.32;99894.56;5134491;27;20065;-68
2022/06/28 16:47:02;;;;;;;9.35;1.05;;;;;;;24.70;30.29;99895.22;5128046;27;20028;-68
2022/06/28 16:49:27;;;;;;;4.18;0.93;;;;;;;24.62;30.42;99890.81;5114299;28;20028;-67
2022/06/28 16:51:53;;;;;;;4.20;0.65;;;;;;;24.55;30.29;99900.78;5114338;28;20032;-67
2022/06/28 16:54:18;;;;;;;4.57;0.88;;;;;;;24.41;30.32;99895.31;5113961;28;20096;-67
2022/06/28 16:56:44;;;;;;;5.75;1.00;;;;;;;24.35;30.73;99899.66;5116771;27;20031;-67
2022/06/28 16:59:10;;;;;;;3.92;0.77;;;;;;;24.46;30.64;99892.03;5134085;27;20058;-67
2022/06/28 17:01:36;;;;;;;1.98;0.57;;;;;;;24.54;30.62;99902.66;5134523;27;20027;-67
2022/06/28 17:04:02;;;;;;;5.13;0.80;;;;;;;24.47;30.53;99891.00;5133228;27;20497;-67
2022/06/28 17:09:11;;;;;;;5.20;1.00;;;;;;;24.40;30.49;99899.09;5134100;27;20052;-67
2022/06/28 17:11:37;;;;;;;4.95;0.88;;;;;;;24.46;30.57;99905.53;5133537;27;20027;-67
2022/06/28 17:14:02;;;;;;;5.88;0.88;;;;;;;24.36;30.73;99905.94;5133288;27;20031;-66
2022/06/28 17:16:28;;;;;;;3.42;0.90;;;;;;;24.24;30.99;99892.16;5133562;27;20035;-67
2022/06/28 17:18:54;;;;;;;3.97;1.00;;;;;;;24.29;30.76;99902.34;5133093;27;20027;-68
2022/06/28 17:21:20;;;;;;;7.43;1.02;;;;;;;24.17;30.63;99902.94;5134658;27;20038;-67
2022/06/28 17:23:46;;;;;;;4.30;1.00;;;;;;;24.14;30.76;99907.91;5133581;27;20061;-67
2022/06/28 17:26:11;;;;;;;2.72;1.17;;;;;;;24.14;31.07;99908.75;5133857;27;20047;-68
2022/06/28 17:28:37;;;;;;;3.28;0.90;;;;;;;24.12;30.77;99912.69;5133981;27;20109;-66
2022/06/28 17:31:03;;;;;;;3.20;0.77;;;;;;;24.06;31.36;99904.34;5133882;27;20100;-67
2022/06/28 17:33:28;;;;;;;1.70;0.60;;;;;;;24.04;30.86;99911.81;5117144;27;20031;-67
2022/06/28 17:35:54;;;;;;;4.00;1.60;;;;;;;23.96;31.13;99919.25;5113653;28;20035;-67
2022/06/28 17:38:19;;;;;;;5.15;1.10;;;;;;;23.82;31.71;99924.56;5126351;27;20069;-68
2022/06/28 17:40:45;;;;;;;9.40;1.58;;;;;;;23.64;31.06;99922.34;5133585;27;20501;-68
2022/06/28 17:43:10;;;;;;;2.40;1.20;;;;;;;23.58;31.36;99928.56;5126174;27;20372;-67
2022/06/28 17:45:36;;;;;;;5.20;1.00;;;;;;;23.66;31.07;99924.88;5113566;28;20042;-67
2022/06/28 17:48:02;;;;;;;6.97;1.20;;;;;;;23.72;31.01;99932.19;5121506;27;20023;-67
2022/06/28 17:50:28;;;;;;;5.25;1.00;;;;;;;23.74;31.06;99930.13;5133835;27;20401;-67
2022/06/28 17:52:53;;;;;;;2.53;0.90;;;;;;;23.86;31.16;99935.81;5133410;27;20479;-67
2022/06/28 17:55:19;;;;;;;1.60;0.75;;;;;;;23.86;30.54;99936.63;5133775;27;20026;-67
2022/06/28 17:57:44;;;;;;;1.98;0.88;;;;;;;23.82;30.78;99937.22;5131973;27;20080;-67
2022/06/28 18:00:10;;;;;;;3.17;0.95;;;;;;;23.79;30.97;99933.06;5133047;28;20047;-67
2022/06/28 18:02:36;;;;;;;4.70;1.00;;;;;;;23.67;30.84;99942.75;5133080;28;20486;-67
2022/06/28 18:05:02;;;;;;;4.63;1.30;;;;;;;23.64;30.59;99932.34;5133564;28;20075;-67
2022/06/28 18:07:27;;;;;;;3.50;0.75;;;;;;;23.61;30.65;99944.34;5131994;28;20122;-67
2022/06/28 18:09:53;;;;;;;5.78;1.05;;;;;;;23.55;30.84;99945.97;5133532;28;20496;-67
2022/06/28 18:12:18;;;;;;;8.60;0.95;;;;;;;23.42;30.83;99952.13;5133186;28;20027;-67
2022/06/28 18:14:44;;;;;;;5.20;1.13;;;;;;;23.32;31.57;99943.50;5133145;28;20039;-67
2022/06/28 18:17:12;;;;;;;5.70;0.90;;;;;;;23.21;31.28;99950.28;5132207;28;20035;-67
2022/06/28 18:19:38;;;;;;;3.67;1.10;;;;;;;23.16;31.68;99950.81;5133363;27;20094;-68
2022/06/28 18:22:04;;;;;;;2.42;0.95;;;;;;;23.01;31.61;99944.69;5126198;27;20028;-68
2022/06/28 18:24:29;;;;;;;6.22;1.35;;;;;;;22.79;31.87;99949.22;5122008;27;20031;-68
2022/06/28 18:26:54;;;;;;;6.97;1.42;;;;;;;22.64;32.28;99955.50;5136479;27;20031;-69
2022/06/28 18:29:20;;;;;;;2.53;1.00;;;;;;;22.78;32.40;99961.03;5137265;27;20023;-68
2022/06/28 18:31:45;;;;;;;2.17;1.08;;;;;;;22.81;32.31;99961.47;5136820;27;20033;-67
2022/06/28 18:34:11;;;;;;;8.05;1.17;;;;;;;22.83;32.24;99967.53;5135972;27;20031;-68
2022/06/28 18:36:36;;;;;;;2.60;1.23;;;;;;;22.79;32.38;99955.44;5136607;27;20031;-68
2022/06/28 18:39:04;;;;;;;4.88;1.15;;;;;;;22.64;32.55;99960.03;5137391;27;20371;-68
2022/06/28 18:41:29;;;;;;;4.93;1.27;;;;;;;22.52;32.92;99963.22;5137042;27;20493;-67
2022/06/28 18:43:54;;;;;;;7.05;1.00;;;;;;;22.30;32.92;99958.75;5103404;28;20039;-67
2022/06/28 18:46:20;;;;;;;3.58;1.15;;;;;;;22.30;32.90;99961.44;5116636;28;20506;-68
2022/06/28 18:48:46;;;;;;;3.40;1.25;;;;;;;22.29;32.86;99967.84;5116180;28;20038;-68
2022/06/28 18:51:11;;;;;;;4.47;1.95;;;;;;;22.37;32.81;99976.69;5116186;28;20047;-67
2022/06/28 18:53:37;;;;;;;3.13;1.45;;;;;;;22.33;32.84;99977.25;5134262;27;20035;-67
2022/06/28 18:56:03;;;;;;;14.02;2.33;;;;;;;22.23;33.12;99973.00;5134651;27;20064;-68
2022/06/28 18:58:29;;;;;;;4.10;1.23;;;;;;;22.29;33.03;99978.63;5135822;27;20100;-68
2022/06/28 19:00:54;;;;;;;2.95;1.05;;;;;;;22.24;32.98;99976.50;5136690;27;20482;-68
2022/06/28 19:03:20;;;;;;;5.07;1.20;;;;;;;22.29;32.99;99978.63;5136803;27;20050;-68
2022/06/28 19:05:46;;;;;;;9.63;1.25;;;;;;;22.30;32.84;99983.00;5136232;27;20075;-67
2022/06/28 19:08:11;;;;;;;3.25;0.98;;;;;;;22.31;33.09;99976.59;5136629;27;20039;-68
2022/06/28 19:10:37;;;;;;;7.60;1.10;;;;;;;22.42;32.75;99980.72;5131788;27;20027;-70
2022/06/28 19:13:02;;;;;;;5.93;1.00;;;;;;;22.41;32.76;99982.56;5127558;27;20470;-67
2022/06/28 19:15:28;;;;;;;2.67;1.10;;;;;;;22.39;32.37;99990.00;5136159;27;20027;-69
2022/06/28 19:17:53;;;;;;;5.70;1.02;;;;;;;22.28;32.47;99999.38;5136370;27;20031;-68
2022/06/28 19:20:19;;;;;;;4.60;1.15;;;;;;;22.29;32.48;100008.28;5136484;27;20030;-67
2022/06/28 19:22:44;;;;;;;6.95;1.08;;;;;;;22.22;32.41;100009.06;5136017;27;20043;-67
2022/06/28 19:25:13;;;;;;;2.50;1.35;;;;;;;22.13;32.33;99993.97;5136163;27;20524;-67
2022/06/28 19:27:40;;;;;;;4.47;0.93;;;;;;;22.09;32.30;100001.59;5135911;27;20069;-68
2022/06/28 19:30:07;;;;;;;3.30;1.33;;;;;;;22.10;32.50;100007.84;5136261;27;20035;-68
2022/06/28 19:32:32;;;;;;;4.60;1.45;;;;;;;22.09;32.56;100015.06;5134702;27;20538;-68
2022/06/28 19:34:58;;;;;;;2.10;0.95;;;;;;;22.12;32.73;100021.13;5134424;27;20035;-68
2022/06/28 19:37:23;;;;;;;3.85;1.13;;;;;;;22.14;32.71;100024.47;5135329;27;20489;-68
2022/06/28 19:39:49;;;;;;;5.88;1.20;;;;;;;22.24;32.62;100027.72;5135564;27;20019;-68
2022/06/28 19:42:14;;;;;;;3.53;1.35;;;;;;;22.37;32.73;100027.09;5134866;27;20490;-68
2022/06/28 19:44:40;;;;;;;7.43;1.55;;;;;;;22.44;32.59;100025.34;5135415;27;20073;-67
2022/06/28 19:47:06;;;;;;;2.15;1.10;;;;;;;22.54;32.50;100038.53;5136000;27;20174;-67
2022/06/28 19:49:31;;;;;;;3.58;1.27;;;;;;;22.27;32.45;100032.75;5135965;27;20385;-67
2022/06/28 19:51:57;;;;;;;5.82;1.50;;;;;;;22.08;32.65;100032.25;5135488;27;20023;-68
2022/06/28 19:54:22;;;;;;;6.35;1.25;;;;;;;22.03;32.81;100037.38;5135387;27;20043;-68
2022/06/28 19:56:48;;;;;;;3.80;1.20;;;;;;;21.92;32.88;100032.44;5135809;27;20041;-67
2022/06/28 19:59:13;;;;;;;5.20;1.27;;;;;;;21.84;33.14;100040.59;5135355;27;20055;-68
2022/06/28 20:01:39;;;;;;;2.03;0.95;;;;;;;21.64;33.18;100038.41;5134610;27;20039;-67
2022/06/28 20:04:05;;;;;;;7.72;1.17;;;;;;;21.63;33.33;100040.28;5135763;27;20031;-68
2022/06/28 20:06:30;;;;;;;7.18;1.25;;;;;;;21.56;33.38;100041.97;5134198;27;20478;-67
2022/06/28 20:08:56;;;;;;;4.80;1.30;;;;;;;21.70;33.15;100043.06;5134852;27;20522;-67
2022/06/28 20:11:22;;;;;;;5.43;1.30;;;;;;;21.66;33.29;100047.13;5135018;27;20031;-67
2022/06/28 20:13:47;;;;;;;4.45;1.00;;;;;;;21.64;32.99;100044.63;5134044;27;20031;-67
2022/06/28 20:16:13;;;;;;;8.07;0.98;;;;;;;21.56;32.80;100049.22;5134575;27;20026;-67
2022/06/28 20:18:38;;;;;;;4.25;1.30;;;;;;;21.47;32.74;100057.34;5133765;27;20083;-68
2022/06/28 20:21:05;;;;;;;5.10;1.50;;;;;;;21.42;32.95;100059.75;5133920;27;20031;-68
2022/06/28 20:23:30;;;;;;;3.45;1.10;;;;;;;21.44;32.87;100063.09;5135247;27;20038;-66
2022/06/28 20:25:56;;;;;;;6.07;1.15;;;;;;;21.44;33.06;100064.94;5134810;27;20039;-66
2022/06/28 20:28:21;;;;;;;5.05;1.23;;;;;;;21.58;33.13;100061.47;5133882;27;20535;-67
2022/06/28 20:30:47;;;;;;;4.38;1.10;;;;;;;21.80;32.98;100070.59;5135300;27;20030;-66
2022/06/28 20:33:12;;;;;;;5.38;1.25;;;;;;;21.89;32.80;100071.34;5121064;27;20027;-66
2022/06/28 20:35:38;;;;;;;5.43;1.38;;;;;;;21.94;32.93;100060.88;5122742;27;20054;-66
2022/06/28 20:38:03;;;;;;;15.30;3.17;;;;;;;21.84;33.00;100068.34;5124291;27;20402;-66
2022/06/28 20:40:29;;;;;;;4.22;1.45;;;;;;;21.64;33.51;100058.09;5124937;27;20036;-66
2022/06/28 20:42:54;;;;;;;5.55;1.70;;;;;;;21.39;33.94;100056.59;5127967;27;20031;-67
2022/06/28 20:45:20;;;;;;;1.65;1.00;;;;;;;21.17;34.40;100059.94;5132429;27;20055;-66
2022/06/28 20:47:45;;;;;;;5.45;1.25;;;;;;;20.87;35.00;100058.91;5128789;27;20489;-65
2022/06/28 20:50:12;;;;;;;2.70;1.30;;;;;;;20.68;35.33;100052.06;5126809;27;20050;-67
2022/06/28 20:52:38;;;;;;;6.18;1.35;;;;;;;20.57;35.44;100053.28;5130395;27;20050;-64
2022/06/28 20:55:05;;;;;;;3.47;1.33;;;;;;;20.62;35.76;100058.13;5131195;27;20562;-68
2022/06/28 20:57:31;;;;;;;3.45;1.40;;;;;;;20.76;35.37;100059.28;5132738;27;20031;-67
2022/06/28 20:59:56;;;;;;;3.90;1.50;;;;;;;20.90;35.47;100058.56;5132137;27;20039;-66
2022/06/28 21:02:22;;;;;;;4.15;1.27;;;;;;;21.04;35.18;100059.63;5131631;27;20034;-67
2022/06/28 21:04:48;;;;;;;10.30;1.48;;;;;;;21.04;35.46;100063.19;5133634;27;20035;-66
2022/06/28 21:07:13;;;;;;;1.67;1.20;;;;;;;21.10;35.45;100055.44;5129273;27;20076;-66
2022/06/28 21:09:39;;;;;;;3.38;1.30;;;;;;;21.16;35.36;100057.41;5131675;27;20047;-67
2022/06/28 21:12:06;;;;;;;7.57;1.63;;;;;;;21.11;35.26;100057.94;5114443;27;20118;-67
2022/06/28 21:14:31;;;;;;;3.38;1.17;;;;;;;21.08;35.49;100063.66;5132900;27;20450;-70
2022/06/28 21:16:59;;;;;;;7.07;1.60;;;;;;;20.97;35.54;100059.50;5128397;27;20031;-67
2022/06/28 21:19:24;;;;;;;5.30;1.30;;;;;;;20.93;35.91;100065.41;5130055;27;20039;-68
2022/06/28 21:21:50;;;;;;;7.65;1.98;;;;;;;20.93;35.85;100062.72;5127047;27;20126;-68
2022/06/28 21:24:15;;;;;;;6.15;2.00;;;;;;;20.91;35.95;100073.69;5133739;27;20033;-68
2022/06/28 21:26:41;;;;;;;4.90;1.45;;;;;;;20.93;35.96;100070.81;5132570;27;20043;-67
2022/06/28 21:29:07;;;;;;;4.25;1.38;;;;;;;20.98;36.03;100055.81;5132818;27;20023;-66
2022/06/28 21:31:33;;;;;;;2.97;1.45;;;;;;;21.04;36.06;100065.88;5133624;27;20083;-67
2022/06/28 21:33:59;;;;;;;4.88;1.50;;;;;;;21.08;35.93;100065.53;5131593;27;20035;-66
2022/06/28 21:36:25;;;;;;;6.38;1.40;;;;;;;21.11;35.64;100059.75;5131028;27;20110;-68
2022/06/28 21:38:51;;;;;;;3.53;1.60;;;;;;;21.12;35.84;100069.53;5131784;27;20117;-66
2022/06/28 21:41:17;;;;;;;3.25;1.10;;;;;;;21.27;35.84;100067.75;5133184;27;20039;-66
2022/06/28 21:43:43;;;;;;;2.13;1.08;;;;;;;21.42;35.40;100069.66;5125321;27;20034;-66
2022/06/28 21:46:08;;;;;;;4.13;1.50;;;;;;;21.42;35.38;100075.91;5132304;27;20109;-65